sensor_id;sensor_type;location;lat;lon;timestamp;temperature;humidity
21271;DHT22;10795;50.796;3.860;2023-04-16T00:00:44;8.50;99.90
21271;DHT22;10795;50.796;3.860;2023-04-16T00:10:07;8.30;99.90
21271;DHT22;10795;50.796;3.860;2023-04-16T00:18:56;7.90;99.90
21271;DHT22;10795;50.796;3.860;2023-04-16T00:28:53;8.10;99.90
21271;DHT22;10795;50.796;3.860;2023-04-16T00:41:37;8.10;99.90
21271;DHT22;10795;50.796;3.860;2023-04-16T00:48:08;8.00;99.90
21271;DHT22;10795;50.796;3.860;2023-04-16T00:54:16;8.20;99.90
21271;DHT22;10795;50.796;3.860;2023-04-16T01:07:28;8.20;99.90
21271;DHT22;10795;50.796;3.860;2023-04-16T01:19:48;8.60;99.90
21271;DHT22;10795;50.796;3.860;2023-04-16T01:22:58;8.60;99.90
21271;DHT22;10795;50.796;3.860;2023-04-16T01:33:07;8.30;99.90
21271;DHT22;10795;50.796;3.860;2023-04-16T02:07:20;8.80;99.90
21271;DHT22;10795;50.796;3.860;2023-04-16T02:10:38;8.60;99.90
21271;DHT22;10795;50.796;3.860;2023-04-16T03:21:18;8.70;99.90
21271;DHT22;10795;50.796;3.860;2023-04-16T03:35:15;8.80;99.90
21271;DHT22;10795;50.796;3.860;2023-04-16T03:52:26;8.80;99.90
21271;DHT22;10795;50.796;3.860;2023-04-16T04:06:37;8.80;99.90
21271;DHT22;10795;50.796;3.860;2023-04-16T05:46:48;9.20;99.90
21271;DHT22;10795;50.796;3.860;2023-04-16T13:52:11;13.40;99.90
21271;DHT22;10795;50.796;3.860;2023-04-16T14:34:58;14.50;99.90
21271;DHT22;10795;50.796;3.860;2023-04-16T14:45:00;14.40;99.90
21271;DHT22;10795;50.796;3.860;2023-04-16T14:51:44;14.70;99.90
21271;DHT22;10795;50.796;3.860;2023-04-16T15:09:55;14.40;99.90
21271;DHT22;10795;50.796;3.860;2023-04-16T15:12:21;14.60;99.90
21271;DHT22;10795;50.796;3.860;2023-04-16T15:14:46;14.40;99.90
21271;DHT22;10795;50.796;3.860;2023-04-16T15:17:12;14.60;99.90
21271;DHT22;10795;50.796;3.860;2023-04-16T15:19:38;14.20;99.90
21271;DHT22;10795;50.796;3.860;2023-04-16T15:22:04;14.60;99.90
21271;DHT22;10795;50.796;3.860;2023-04-16T15:24:29;14.80;99.90
21271;DHT22;10795;50.796;3.860;2023-04-16T15:26:55;15.10;99.90
21271;DHT22;10795;50.796;3.860;2023-04-16T15:29:21;15.10;99.90
21271;DHT22;10795;50.796;3.860;2023-04-16T15:31:46;15.20;99.90
21271;DHT22;10795;50.796;3.860;2023-04-16T15:34:12;15.20;99.90
21271;DHT22;10795;50.796;3.860;2023-04-16T15:36:38;15.30;99.90
21271;DHT22;10795;50.796;3.860;2023-04-16T15:39:03;15.30;99.90
21271;DHT22;10795;50.796;3.860;2023-04-16T15:41:29;15.30;99.90
21271;DHT22;10795;50.796;3.860;2023-04-16T15:43:56;15.30;99.90
21271;DHT22;10795;50.796;3.860;2023-04-16T15:46:22;15.30;99.90
21271;DHT22;10795;50.796;3.860;2023-04-16T15:48:47;15.40;99.90
21271;DHT22;10795;50.796;3.860;2023-04-16T15:51:13;15.30;99.90
21271;DHT22;10795;50.796;3.860;2023-04-16T15:53:39;15.40;99.90
21271;DHT22;10795;50.796;3.860;2023-04-16T15:56:04;15.20;99.90
21271;DHT22;10795;50.796;3.860;2023-04-16T15:58:33;15.30;99.90
21271;DHT22;10795;50.796;3.860;2023-04-16T16:01:05;15.20;99.90
21271;DHT22;10795;50.796;3.860;2023-04-16T16:03:36;15.30;99.90
21271;DHT22;10795;50.796;3.860;2023-04-16T16:06:02;15.30;99.90
21271;DHT22;10795;50.796;3.860;2023-04-16T16:08:33;15.30;99.90
21271;DHT22;10795;50.796;3.860;2023-04-16T16:11:00;15.20;99.90
21271;DHT22;10795;50.796;3.860;2023-04-16T16:13:26;15.30;99.90
21271;DHT22;10795;50.796;3.860;2023-04-16T16:15:52;15.00;99.90
21271;DHT22;10795;50.796;3.860;2023-04-16T16:18:19;14.30;99.90
21271;DHT22;10795;50.796;3.860;2023-04-16T16:20:46;14.00;99.90
21271;DHT22;10795;50.796;3.860;2023-04-16T16:23:12;14.20;99.90
21271;DHT22;10795;50.796;3.860;2023-04-16T16:25:38;14.40;99.90
21271;DHT22;10795;50.796;3.860;2023-04-16T16:28:06;14.40;99.90
21271;DHT22;10795;50.796;3.860;2023-04-16T16:30:32;14.10;99.90
21271;DHT22;10795;50.796;3.860;2023-04-16T16:32:57;14.20;99.90
21271;DHT22;10795;50.796;3.860;2023-04-16T16:35:23;14.10;99.90
21271;DHT22;10795;50.796;3.860;2023-04-16T16:37:50;13.60;99.90
21271;DHT22;10795;50.796;3.860;2023-04-16T16:40:20;13.60;99.90
21271;DHT22;10795;50.796;3.860;2023-04-16T16:42:46;13.90;99.90
21271;DHT22;10795;50.796;3.860;2023-04-16T16:45:11;13.60;99.90
21271;DHT22;10795;50.796;3.860;2023-04-16T16:47:37;13.80;99.90
21271;DHT22;10795;50.796;3.860;2023-04-16T16:50:03;13.50;99.90
21271;DHT22;10795;50.796;3.860;2023-04-16T16:52:31;13.20;99.90
21271;DHT22;10795;50.796;3.860;2023-04-16T16:54:57;13.70;99.90
21271;DHT22;10795;50.796;3.860;2023-04-16T16:57:22;13.70;99.90
21271;DHT22;10795;50.796;3.860;2023-04-16T16:59:49;13.60;99.90
21271;DHT22;10795;50.796;3.860;2023-04-16T17:02:16;13.70;99.90
21271;DHT22;10795;50.796;3.860;2023-04-16T17:04:42;13.90;99.90
21271;DHT22;10795;50.796;3.860;2023-04-16T17:07:07;13.80;99.90
21271;DHT22;10795;50.796;3.860;2023-04-16T17:09:33;13.80;99.90
21271;DHT22;10795;50.796;3.860;2023-04-16T17:11:59;14.10;99.90
21271;DHT22;10795;50.796;3.860;2023-04-16T17:14:25;13.80;99.90
21271;DHT22;10795;50.796;3.860;2023-04-16T17:16:53;13.70;99.90
21271;DHT22;10795;50.796;3.860;2023-04-16T17:19:19;14.00;99.90
21271;DHT22;10795;50.796;3.860;2023-04-16T17:21:45;14.30;99.90
21271;DHT22;10795;50.796;3.860;2023-04-16T17:24:10;13.80;99.90
21271;DHT22;10795;50.796;3.860;2023-04-16T17:26:36;13.80;99.90
21271;DHT22;10795;50.796;3.860;2023-04-16T17:29:05;13.80;99.90
21271;DHT22;10795;50.796;3.860;2023-04-16T17:31:31;13.40;99.90
21271;DHT22;10795;50.796;3.860;2023-04-16T17:33:56;13.60;99.90
21271;DHT22;10795;50.796;3.860;2023-04-16T17:36:24;13.60;99.90
21271;DHT22;10795;50.796;3.860;2023-04-16T17:38:51;13.70;99.90
21271;DHT22;10795;50.796;3.860;2023-04-16T17:41:17;13.60;99.90
21271;DHT22;10795;50.796;3.860;2023-04-16T17:43:47;13.90;99.90
21271;DHT22;10795;50.796;3.860;2023-04-16T17:46:22;13.70;99.90
21271;DHT22;10795;50.796;3.860;2023-04-16T17:48:47;13.30;99.90
21271;DHT22;10795;50.796;3.860;2023-04-16T17:51:13;13.00;99.90
21271;DHT22;10795;50.796;3.860;2023-04-16T17:53:41;12.80;99.90
21271;DHT22;10795;50.796;3.860;2023-04-16T17:56:07;13.10;99.90
21271;DHT22;10795;50.796;3.860;2023-04-16T17:58:33;13.20;99.90
21271;DHT22;10795;50.796;3.860;2023-04-16T18:01:02;13.50;99.90
21271;DHT22;10795;50.796;3.860;2023-04-16T18:03:30;13.70;99.90
21271;DHT22;10795;50.796;3.860;2023-04-16T18:05:56;13.40;99.90
21271;DHT22;10795;50.796;3.860;2023-04-16T18:08:22;13.10;99.90
21271;DHT22;10795;50.796;3.860;2023-04-16T18:10:47;13.00;99.90
21271;DHT22;10795;50.796;3.860;2023-04-16T18:13:13;13.00;99.90
21271;DHT22;10795;50.796;3.860;2023-04-16T18:15:39;13.00;99.90
21271;DHT22;10795;50.796;3.860;2023-04-16T18:18:06;12.60;99.90
21271;DHT22;10795;50.796;3.860;2023-04-16T18:20:32;12.40;99.90
21271;DHT22;10795;50.796;3.860;2023-04-16T18:22:58;12.80;99.90
21271;DHT22;10795;50.796;3.860;2023-04-16T18:25:23;12.70;99.90
21271;DHT22;10795;50.796;3.860;2023-04-16T18:27:49;12.80;99.90
21271;DHT22;10795;50.796;3.860;2023-04-16T18:30:15;13.00;99.90
21271;DHT22;10795;50.796;3.860;2023-04-16T18:32:43;12.50;99.90
21271;DHT22;10795;50.796;3.860;2023-04-16T18:35:09;12.40;99.90
21271;DHT22;10795;50.796;3.860;2023-04-16T18:37:34;12.10;99.90
21271;DHT22;10795;50.796;3.860;2023-04-16T18:40:00;12.10;99.90
21271;DHT22;10795;50.796;3.860;2023-04-16T18:42:26;12.10;99.90
21271;DHT22;10795;50.796;3.860;2023-04-16T18:44:55;12.20;99.90
21271;DHT22;10795;50.796;3.860;2023-04-16T18:47:21;12.70;99.90
21271;DHT22;10795;50.796;3.860;2023-04-16T18:49:46;12.80;99.90
21271;DHT22;10795;50.796;3.860;2023-04-16T18:52:12;13.10;99.90
21271;DHT22;10795;50.796;3.860;2023-04-16T18:54:38;12.70;99.90
21271;DHT22;10795;50.796;3.860;2023-04-16T18:57:05;12.20;99.90
21271;DHT22;10795;50.796;3.860;2023-04-16T18:59:30;11.80;99.90
21271;DHT22;10795;50.796;3.860;2023-04-16T19:01:56;11.80;99.90
21271;DHT22;10795;50.796;3.860;2023-04-16T19:04:22;12.30;99.90
21271;DHT22;10795;50.796;3.860;2023-04-16T19:06:47;12.20;99.90
21271;DHT22;10795;50.796;3.860;2023-04-16T19:09:13;12.00;99.90
21271;DHT22;10795;50.796;3.860;2023-04-16T19:11:39;11.70;99.90
21271;DHT22;10795;50.796;3.860;2023-04-16T19:14:05;11.50;99.90
21271;DHT22;10795;50.796;3.860;2023-04-16T19:16:32;12.00;99.90
21271;DHT22;10795;50.796;3.860;2023-04-16T19:18:57;12.30;99.90
21271;DHT22;10795;50.796;3.860;2023-04-16T19:21:23;12.40;99.90
21271;DHT22;10795;50.796;3.860;2023-04-16T19:23:50;13.00;99.90
21271;DHT22;10795;50.796;3.860;2023-04-16T19:26:16;12.80;99.90
21271;DHT22;10795;50.796;3.860;2023-04-16T19:28:42;12.90;99.90
21271;DHT22;10795;50.796;3.860;2023-04-16T19:31:08;12.90;99.90
21271;DHT22;10795;50.796;3.860;2023-04-16T19:33:34;13.00;99.90
21271;DHT22;10795;50.796;3.860;2023-04-16T19:36:00;13.00;99.90
21271;DHT22;10795;50.796;3.860;2023-04-16T19:38:27;12.70;99.90
21271;DHT22;10795;50.796;3.860;2023-04-16T19:40:52;12.60;99.90
21271;DHT22;10795;50.796;3.860;2023-04-16T19:43:18;12.60;99.90
21271;DHT22;10795;50.796;3.860;2023-04-16T19:45:44;12.40;99.90
21271;DHT22;10795;50.796;3.860;2023-04-16T19:48:10;11.90;99.90
21271;DHT22;10795;50.796;3.860;2023-04-16T19:50:40;12.00;99.90
21271;DHT22;10795;50.796;3.860;2023-04-16T19:53:06;12.30;99.90
21271;DHT22;10795;50.796;3.860;2023-04-16T19:55:31;12.70;99.90
21271;DHT22;10795;50.796;3.860;2023-04-16T19:57:57;12.80;99.90
21271;DHT22;10795;50.796;3.860;2023-04-16T20:00:33;12.70;99.90
21271;DHT22;10795;50.796;3.860;2023-04-16T20:02:59;12.50;99.90
21271;DHT22;10795;50.796;3.860;2023-04-16T20:05:25;12.70;99.90
21271;DHT22;10795;50.796;3.860;2023-04-16T20:07:51;12.60;99.90
21271;DHT22;10795;50.796;3.860;2023-04-16T20:10:17;12.40;99.90
21271;DHT22;10795;50.796;3.860;2023-04-16T20:12:43;12.50;99.90
21271;DHT22;10795;50.796;3.860;2023-04-16T20:15:08;12.70;99.90
21271;DHT22;10795;50.796;3.860;2023-04-16T20:17:34;12.50;99.90
21271;DHT22;10795;50.796;3.860;2023-04-16T20:20:00;12.60;99.90
21271;DHT22;10795;50.796;3.860;2023-04-16T20:22:37;12.50;99.90
21271;DHT22;10795;50.796;3.860;2023-04-16T20:25:03;12.40;99.90
21271;DHT22;10795;50.796;3.860;2023-04-16T20:27:32;12.00;99.90
21271;DHT22;10795;50.796;3.860;2023-04-16T20:29:59;11.90;99.90
21271;DHT22;10795;50.796;3.860;2023-04-16T20:32:24;11.70;99.90
21271;DHT22;10795;50.796;3.860;2023-04-16T20:34:50;11.90;99.90
21271;DHT22;10795;50.796;3.860;2023-04-16T20:37:16;12.00;99.90
21271;DHT22;10795;50.796;3.860;2023-04-16T20:39:41;11.80;99.90
21271;DHT22;10795;50.796;3.860;2023-04-16T20:42:12;11.60;99.90
21271;DHT22;10795;50.796;3.860;2023-04-16T20:44:38;11.50;99.90
21271;DHT22;10795;50.796;3.860;2023-04-16T20:47:07;11.60;99.90
21271;DHT22;10795;50.796;3.860;2023-04-16T20:49:33;11.60;99.90
21271;DHT22;10795;50.796;3.860;2023-04-16T20:52:03;11.70;99.90
21271;DHT22;10795;50.796;3.860;2023-04-16T20:54:29;11.70;99.90
21271;DHT22;10795;50.796;3.860;2023-04-16T20:56:55;11.60;99.90
21271;DHT22;10795;50.796;3.860;2023-04-16T20:59:21;11.50;99.90
21271;DHT22;10795;50.796;3.860;2023-04-16T21:01:47;11.60;99.90
21271;DHT22;10795;50.796;3.860;2023-04-16T21:04:13;12.00;99.90
21271;DHT22;10795;50.796;3.860;2023-04-16T21:06:38;11.80;99.90
21271;DHT22;10795;50.796;3.860;2023-04-16T21:09:10;11.20;99.90
21271;DHT22;10795;50.796;3.860;2023-04-16T21:11:36;11.50;99.90
21271;DHT22;10795;50.796;3.860;2023-04-16T21:14:02;11.40;99.90
21271;DHT22;10795;50.796;3.860;2023-04-16T21:16:28;11.90;99.90
21271;DHT22;10795;50.796;3.860;2023-04-16T21:18:54;11.90;99.90
21271;DHT22;10795;50.796;3.860;2023-04-16T21:21:20;11.70;99.90
21271;DHT22;10795;50.796;3.860;2023-04-16T21:23:45;11.80;99.90
21271;DHT22;10795;50.796;3.860;2023-04-16T21:26:11;11.70;99.90
21271;DHT22;10795;50.796;3.860;2023-04-16T21:28:37;11.80;99.90
21271;DHT22;10795;50.796;3.860;2023-04-16T21:31:02;11.80;99.90
21271;DHT22;10795;50.796;3.860;2023-04-16T21:33:28;11.90;99.90
21271;DHT22;10795;50.796;3.860;2023-04-16T21:35:54;11.60;99.90
21271;DHT22;10795;50.796;3.860;2023-04-16T21:38:20;11.50;99.90
21271;DHT22;10795;50.796;3.860;2023-04-16T21:40:46;11.30;99.90
21271;DHT22;10795;50.796;3.860;2023-04-16T21:43:18;11.70;99.90
21271;DHT22;10795;50.796;3.860;2023-04-16T21:45:44;11.10;99.90
21271;DHT22;10795;50.796;3.860;2023-04-16T21:48:10;11.10;99.90
21271;DHT22;10795;50.796;3.860;2023-04-16T21:50:36;11.20;99.90
21271;DHT22;10795;50.796;3.860;2023-04-16T21:53:02;11.60;99.90
21271;DHT22;10795;50.796;3.860;2023-04-16T21:55:28;11.80;99.90
21271;DHT22;10795;50.796;3.860;2023-04-16T21:57:54;11.60;99.90
21271;DHT22;10795;50.796;3.860;2023-04-16T22:00:20;11.30;99.90
21271;DHT22;10795;50.796;3.860;2023-04-16T22:02:48;10.80;99.90
21271;DHT22;10795;50.796;3.860;2023-04-16T22:05:13;10.50;99.90
21271;DHT22;10795;50.796;3.860;2023-04-16T22:07:39;10.30;99.90
21271;DHT22;10795;50.796;3.860;2023-04-16T22:10:05;10.30;99.90
21271;DHT22;10795;50.796;3.860;2023-04-16T22:12:33;10.30;99.90
21271;DHT22;10795;50.796;3.860;2023-04-16T22:15:03;10.20;99.90
21271;DHT22;10795;50.796;3.860;2023-04-16T22:17:29;10.20;99.90
21271;DHT22;10795;50.796;3.860;2023-04-16T22:19:55;10.60;99.90
21271;DHT22;10795;50.796;3.860;2023-04-16T22:22:21;11.20;99.90
21271;DHT22;10795;50.796;3.860;2023-04-16T22:24:47;11.30;99.90
21271;DHT22;10795;50.796;3.860;2023-04-16T22:27:13;11.70;99.90
21271;DHT22;10795;50.796;3.860;2023-04-16T22:29:38;11.70;99.90
21271;DHT22;10795;50.796;3.860;2023-04-16T22:32:04;11.40;99.90
21271;DHT22;10795;50.796;3.860;2023-04-16T22:34:30;11.60;99.90
21271;DHT22;10795;50.796;3.860;2023-04-16T22:36:56;11.30;99.90
21271;DHT22;10795;50.796;3.860;2023-04-16T22:39:22;11.40;99.90
21271;DHT22;10795;50.796;3.860;2023-04-16T22:41:47;11.40;99.90
21271;DHT22;10795;50.796;3.860;2023-04-16T22:44:13;11.30;99.90
21271;DHT22;10795;50.796;3.860;2023-04-16T22:46:39;11.30;99.90
21271;DHT22;10795;50.796;3.860;2023-04-16T22:49:05;11.30;99.90
21271;DHT22;10795;50.796;3.860;2023-04-16T22:51:30;11.30;99.90
21271;DHT22;10795;50.796;3.860;2023-04-16T22:53:56;10.80;99.90
21271;DHT22;10795;50.796;3.860;2023-04-16T22:56:22;10.80;99.90
21271;DHT22;10795;50.796;3.860;2023-04-16T22:58:53;11.00;99.90
21271;DHT22;10795;50.796;3.860;2023-04-16T23:01:18;11.20;99.90
21271;DHT22;10795;50.796;3.860;2023-04-16T23:03:44;10.90;99.90
21271;DHT22;10795;50.796;3.860;2023-04-16T23:06:09;10.50;99.90
21271;DHT22;10795;50.796;3.860;2023-04-16T23:08:35;10.10;99.90
21271;DHT22;10795;50.796;3.860;2023-04-16T23:11:01;9.90;99.90
21271;DHT22;10795;50.796;3.860;2023-04-16T23:13:26;10.00;99.90
21271;DHT22;10795;50.796;3.860;2023-04-16T23:15:52;10.20;99.90
21271;DHT22;10795;50.796;3.860;2023-04-16T23:18:18;10.80;99.90
21271;DHT22;10795;50.796;3.860;2023-04-16T23:20:43;10.90;99.90
21271;DHT22;10795;50.796;3.860;2023-04-16T23:23:09;10.40;99.90
21271;DHT22;10795;50.796;3.860;2023-04-16T23:25:34;10.20;99.90
21271;DHT22;10795;50.796;3.860;2023-04-16T23:28:00;10.20;99.90
21271;DHT22;10795;50.796;3.860;2023-04-16T23:30:26;10.10;99.90
21271;DHT22;10795;50.796;3.860;2023-04-16T23:32:51;10.00;99.90
21271;DHT22;10795;50.796;3.860;2023-04-16T23:35:17;9.90;99.90
21271;DHT22;10795;50.796;3.860;2023-04-16T23:37:50;9.70;99.90
21271;DHT22;10795;50.796;3.860;2023-04-16T23:40:16;9.70;99.90
21271;DHT22;10795;50.796;3.860;2023-04-16T23:42:41;10.00;99.90
21271;DHT22;10795;50.796;3.860;2023-04-16T23:45:07;10.10;99.90
21271;DHT22;10795;50.796;3.860;2023-04-16T23:47:33;10.40;99.90
21271;DHT22;10795;50.796;3.860;2023-04-16T23:49:59;11.00;99.90
21271;DHT22;10795;50.796;3.860;2023-04-16T23:52:24;11.20;99.90
21271;DHT22;10795;50.796;3.860;2023-04-16T23:54:50;11.30;99.90
21271;DHT22;10795;50.796;3.860;2023-04-16T23:57:16;10.50;99.90
21271;DHT22;10795;50.796;3.860;2023-04-16T23:59:41;10.00;99.90
